Time;durP1;ratioP1;P1;durP2;ratioP2;P2;SDS_P1;SDS_P2;PMS_P1;PMS_P2;Temp;Humidity;BMP_temperature;BMP_pressure;BME280_temperature;BME280_humidity;BME280_pressure;Samples;Min_cycle;Max_cycle;Signal;HPM_P1;HPM_P2
2022/01/30 00:00:24;;;;;;;10.80;3.83;;;10.00;99.90;;;;;;5013177;28;20620;-75
2022/01/30 00:02:52;;;;;;;7.90;4.00;;;10.00;99.90;;;;;;5003555;28;20244;-74
2022/01/30 00:05:22;;;;;;;15.15;3.08;;;9.90;99.90;;;;;;5003250;28;20270;-75
2022/01/30 00:07:48;;;;;;;9.93;3.22;;;9.90;99.90;;;;;;5010736;28;20201;-75
2022/01/30 00:10:14;;;;;;;9.07;3.50;;;9.80;99.90;;;;;;5032275;28;20208;-74
2022/01/30 00:12:54;;;;;;;6.28;2.67;;;9.80;99.90;;;;;;5011080;28;20201;-74
2022/01/30 00:15:34;;;;;;;11.38;3.70;;;9.80;99.90;;;;;;5020297;28;20166;-74
2022/01/30 00:18:10;;;;;;;12.00;3.97;;;9.80;99.90;;;;;;5024197;28;20182;-74
2022/01/30 00:20:39;;;;;;;20.17;3.20;;;9.70;99.90;;;;;;5019738;28;20206;-74
2022/01/30 00:23:23;;;;;;;10.13;3.47;;;9.70;99.90;;;;;;5003335;28;20178;-75
2022/01/30 00:25:54;;;;;;;12.73;3.90;;;9.80;99.90;;;;;;5020205;28;20184;-75
2022/01/30 00:28:22;;;;;;;14.75;3.92;;;9.70;99.90;;;;;;5006755;28;20213;-75
2022/01/30 00:30:49;;;;;;;11.15;3.28;;;9.70;99.90;;;;;;4989722;28;20225;-75
2022/01/30 00:33:18;;;;;;;14.35;3.17;;;9.70;99.90;;;;;;5023171;28;20220;-74
2022/01/30 00:35:44;;;;;;;13.48;4.10;;;9.70;99.90;;;;;;5011335;28;20232;-74
2022/01/30 00:38:15;;;;;;;14.73;3.83;;;9.60;99.90;;;;;;4996911;28;20692;-74
2022/01/30 00:40:48;;;;;;;12.95;3.25;;;9.60;99.90;;;;;;5020795;28;20236;-74
2022/01/30 00:43:18;;;;;;;11.27;3.40;;;9.60;99.90;;;;;;5013009;28;20194;-74
2022/01/30 00:45:45;;;;;;;8.88;4.00;;;9.60;99.90;;;;;;5020845;28;20578;-75
2022/01/30 00:48:11;;;;;;;17.35;5.50;;;9.60;99.90;;;;;;5019700;28;20564;-74
2022/01/30 00:50:38;;;;;;;9.82;3.95;;;9.50;99.90;;;;;;5004642;28;20198;-72
2022/01/30 00:53:04;;;;;;;14.57;3.90;;;9.50;99.90;;;;;;5010778;28;20182;-73
2022/01/30 00:55:30;;;;;;;13.13;4.43;;;9.40;99.90;;;;;;5005033;28;20177;-72
2022/01/30 00:57:57;;;;;;;8.02;3.10;;;9.40;99.90;;;;;;5020100;28;20206;-73
2022/01/30 01:00:27;;;;;;;12.95;4.50;;;9.30;99.90;;;;;;5022139;28;20267;-73
2022/01/30 01:02:53;;;;;;;16.08;5.10;;;9.30;99.90;;;;;;5001938;28;20174;-72
2022/01/30 01:05:20;;;;;;;19.00;4.80;;;9.20;99.90;;;;;;5023300;28;20173;-72
2022/01/30 01:07:48;;;;;;;19.20;4.35;;;9.20;99.90;;;;;;5018245;28;20628;-72
2022/01/30 01:13:01;;;;;;;11.52;3.75;;;9.20;99.90;;;;;;5012201;28;20552;-72
2022/01/30 01:23:19;;;;;;;16.23;4.05;;;9.00;99.90;;;;;;5019062;28;20289;-72
2022/01/30 01:23:46;;;;;;;10.90;2.75;;;9.00;99.90;;;;;;5018972;28;20651;-72
2022/01/30 01:26:13;;;;;;;12.88;3.83;;;9.00;99.90;;;;;;5005189;28;20204;-72
2022/01/30 01:28:39;;;;;;;8.93;3.35;;;8.90;99.90;;;;;;5018309;28;20292;-72
2022/01/30 01:31:05;;;;;;;15.02;4.07;;;8.90;99.90;;;;;;5022464;28;20194;-72
2022/01/30 01:33:46;;;;;;;16.27;4.00;;;8.90;99.90;;;;;;5047827;23;20244;-73
2022/01/30 01:36:12;;;;;;;8.43;2.78;;;8.90;99.90;;;;;;5034589;28;20252;-73
2022/01/30 01:38:39;;;;;;;13.60;4.50;;;8.80;99.90;;;;;;5038051;28;20293;-74
2022/01/30 01:41:04;;;;;;;10.30;3.17;;;8.80;99.90;;;;;;5014936;28;20581;-73
2022/01/30 01:43:31;;;;;;;9.90;3.10;;;8.80;99.90;;;;;;5026722;28;20203;-73
2022/01/30 01:45:58;;;;;;;7.80;2.50;;;8.80;99.90;;;;;;5010927;28;20182;-74
2022/01/30 01:48:24;;;;;;;12.52;3.33;;;8.70;99.90;;;;;;5015103;28;20210;-73
2022/01/30 01:51:05;;;;;;;13.80;3.15;;;8.70;99.90;;;;;;5039832;28;20174;-73
2022/01/30 01:53:32;;;;;;;11.82;3.80;;;8.70;99.90;;;;;;5038151;28;20194;-73
2022/01/30 01:55:58;;;;;;;17.65;4.00;;;8.70;99.90;;;;;;5026331;28;20551;-73
2022/01/30 01:58:27;;;;;;;20.40;3.90;;;8.60;99.90;;;;;;5021639;28;20185;-73
2022/01/30 02:01:19;;;;;;;13.40;2.92;;;8.60;99.90;;;;;;5024667;28;20217;-73
2022/01/30 02:03:45;;;;;;;14.33;3.97;;;8.60;99.90;;;;;;5025169;28;20704;-74
2022/01/30 02:06:14;;;;;;;12.93;3.50;;;8.60;99.90;;;;;;5038062;28;20178;-74
2022/01/30 02:08:49;;;;;;;11.90;3.40;;;8.60;99.90;;;;;;5021862;28;20202;-75
2022/01/30 02:11:27;;;;;;;14.95;3.80;;;8.50;99.90;;;;;;5031145;28;20178;-74
2022/01/30 02:14:15;;;;;;;12.02;3.60;;;8.50;99.90;;;;;;5041011;28;20808;-74
2022/01/30 02:27:36;;;;;;;18.75;4.00;;;8.40;99.90;;;;;;5032836;28;20684;-73
2022/01/30 02:30:14;;;;;;;15.02;3.33;;;8.40;99.90;;;;;;5041281;28;20222;-74
2022/01/30 02:32:40;;;;;;;12.85;3.35;;;8.30;99.90;;;;;;5037445;28;20212;-73
2022/01/30 02:35:06;;;;;;;17.83;3.90;;;8.30;99.90;;;;;;5027641;28;20177;-74
2022/01/30 02:37:32;;;;;;;10.90;3.00;;;8.30;99.90;;;;;;5031348;28;20177;-73
2022/01/30 02:39:58;;;;;;;16.87;3.90;;;8.30;99.90;;;;;;5020700;28;20567;-73
2022/01/30 02:42:28;;;;;;;12.63;3.47;;;8.30;99.90;;;;;;5043058;28;20612;-73
2022/01/30 02:44:58;;;;;;;9.50;3.03;;;8.30;99.90;;;;;;5012207;28;21026;-73
2022/01/30 02:52:37;;;;;;;13.88;4.47;;;8.20;99.90;;;;;;5037310;28;20208;-73
2022/01/30 02:55:04;;;;;;;17.92;3.22;;;8.20;99.90;;;;;;5017321;28;20177;-73
2022/01/30 02:57:30;;;;;;;18.02;4.07;;;8.20;99.90;;;;;;5038751;28;20177;-73
2022/01/30 02:59:56;;;;;;;14.15;4.07;;;8.20;99.90;;;;;;5038110;28;20178;-73
2022/01/30 03:02:22;;;;;;;15.00;4.17;;;8.20;99.90;;;;;;5022721;28;20699;-73
2022/01/30 03:04:48;;;;;;;18.17;4.20;;;8.20;99.90;;;;;;5021759;28;20313;-73
2022/01/30 03:07:13;;;;;;;13.80;3.30;;;8.30;99.90;;;;;;5022659;28;20604;-73
2022/01/30 03:09:49;;;;;;;20.55;4.30;;;8.20;99.90;;;;;;5022720;28;20193;-74
2022/01/30 03:12:15;;;;;;;16.10;3.40;;;8.20;99.90;;;;;;5037818;28;20202;-73
2022/01/30 03:14:42;;;;;;;13.97;3.60;;;8.20;99.90;;;;;;5024039;28;20175;-73
2022/01/30 03:17:09;;;;;;;12.50;4.05;;;8.20;99.90;;;;;;5021068;28;20194;-73
2022/01/30 03:19:35;;;;;;;11.52;3.72;;;8.20;99.90;;;;;;5022738;28;20581;-73
2022/01/30 03:22:00;;;;;;;9.93;2.63;;;8.20;99.90;;;;;;5020797;28;20178;-73
2022/01/30 03:24:33;;;;;;;10.70;2.90;;;8.10;99.90;;;;;;5039534;28;21145;-73
2022/01/30 03:27:08;;;;;;;17.35;4.47;;;8.10;99.90;;;;;;5025131;28;20181;-73
2022/01/30 03:30:02;;;;;;;13.10;3.42;;;8.10;99.90;;;;;;5020543;28;20186;-73
2022/01/30 03:32:48;;;;;;;9.60;3.53;;;8.10;99.90;;;;;;5024271;28;20240;-73
2022/01/30 03:35:13;;;;;;;16.43;3.63;;;8.00;99.90;;;;;;5020383;28;20178;-73
2022/01/30 03:37:39;;;;;;;10.10;2.93;;;8.00;99.90;;;;;;5027916;28;20593;-73
2022/01/30 03:40:06;;;;;;;12.40;3.43;;;8.00;99.90;;;;;;5030885;28;20276;-74
2022/01/30 03:42:31;;;;;;;12.95;3.20;;;8.00;99.90;;;;;;5024917;28;20225;-73
2022/01/30 03:44:57;;;;;;;12.73;3.07;;;8.00;99.90;;;;;;5027172;28;20642;-73
2022/01/30 03:47:24;;;;;;;13.60;3.63;;;8.00;99.90;;;;;;5022694;28;20600;-73
2022/01/30 03:49:52;;;;;;;15.10;3.67;;;8.00;99.90;;;;;;5026070;28;20672;-73
2022/01/30 03:52:18;;;;;;;12.82;3.35;;;8.10;99.90;;;;;;5014670;28;20205;-73
2022/01/30 03:54:44;;;;;;;12.03;3.13;;;8.10;99.90;;;;;;5019622;28;20757;-73
2022/01/30 03:57:11;;;;;;;10.80;2.35;;;8.20;99.90;;;;;;5039651;28;20599;-73
2022/01/30 03:59:38;;;;;;;6.10;2.60;;;8.20;99.90;;;;;;5019025;28;20183;-73
2022/01/30 04:02:04;;;;;;;15.90;3.60;;;8.20;99.90;;;;;;5026279;28;20173;-74
2022/01/30 04:04:33;;;;;;;9.38;2.45;;;8.30;99.90;;;;;;5026484;28;20184;-73
2022/01/30 04:07:01;;;;;;;9.68;2.72;;;8.30;99.90;;;;;;5025318;28;20208;-73
2022/01/30 04:09:47;;;;;;;11.15;2.47;;;8.40;99.90;;;;;;5017878;28;20557;-73
2022/01/30 04:12:32;;;;;;;12.65;3.08;;;8.40;99.90;;;;;;5022256;28;20205;-73
2022/01/30 04:15:24;;;;;;;12.40;3.72;;;8.40;99.90;;;;;;5015511;28;20197;-73
2022/01/30 04:18:00;;;;;;;10.80;2.67;;;8.40;99.90;;;;;;5022830;28;20173;-73
2022/01/30 04:20:35;;;;;;;14.80;3.42;;;8.50;99.90;;;;;;5018788;28;20178;-73
2022/01/30 04:23:14;;;;;;;14.80;3.38;;;8.50;99.90;;;;;;5030796;28;20224;-73
2022/01/30 04:25:51;;;;;;;14.05;2.85;;;8.50;99.90;;;;;;5035797;28;20178;-73
2022/01/30 04:28:36;;;;;;;15.50;4.43;;;8.50;99.90;;;;;;5024703;28;20218;-73
2022/01/30 04:31:14;;;;;;;10.77;2.90;;;8.50;99.90;;;;;;5026881;28;20182;-73
2022/01/30 04:33:50;;;;;;;12.10;2.95;;;8.50;99.90;;;;;;5036332;28;20593;-73
2022/01/30 04:36:40;;;;;;;21.65;3.78;;;8.60;99.90;;;;;;5027740;28;20192;-73
2022/01/30 04:40:07;;;;;;;13.88;3.92;;;8.50;99.90;;;;;;5027084;28;20197;-74
2022/01/30 05:06:10;;;;;;;21.05;3.40;;;8.20;99.90;;;;;;5021245;28;20189;-73
2022/01/30 05:09:11;;;;;;;13.32;3.25;;;8.10;99.90;;;;;;5018607;28;20221;-73
2022/01/30 05:11:57;;;;;;;12.15;3.38;;;8.10;99.90;;;;;;5020191;28;20182;-73
2022/01/30 05:14:39;;;;;;;12.90;3.88;;;8.10;99.90;;;;;;5018826;28;20178;-74
2022/01/30 05:17:23;;;;;;;12.60;2.75;;;8.20;99.90;;;;;;5019384;28;20239;-74
2022/01/30 05:20:21;;;;;;;12.43;3.75;;;8.20;99.90;;;;;;5029214;28;20186;-74
2022/01/30 05:23:06;;;;;;;15.55;3.15;;;8.30;99.90;;;;;;5024112;28;20268;-74
2022/01/30 05:25:48;;;;;;;12.48;3.05;;;8.30;99.90;;;;;;5022871;28;20265;-73
2022/01/30 05:28:15;;;;;;;11.77;2.45;;;8.20;99.90;;;;;;5018683;28;20206;-74
2022/01/30 05:31:06;;;;;;;17.00;3.28;;;8.20;99.90;;;;;;5033275;28;20589;-74
2022/01/30 05:34:04;;;;;;;8.35;2.00;;;8.20;99.90;;;;;;5022986;28;20217;-73
2022/01/30 05:36:52;;;;;;;14.35;3.25;;;8.10;99.90;;;;;;5025011;28;20593;-73
2022/01/30 05:39:36;;;;;;;15.25;2.92;;;8.10;99.90;;;;;;5027235;28;20597;-74
2022/01/30 05:42:24;;;;;;;15.25;2.92;;;8.10;99.90;;;;;;5023077;28;20194;-74
2022/01/30 05:48:11;;;;;;;13.60;2.30;;;8.00;99.90;;;;;;5023090;28;20221;-74
2022/01/30 05:50:51;;;;;;;16.63;3.80;;;7.90;99.90;;;;;;5023243;28;20253;-74
2022/01/30 05:53:37;;;;;;;12.30;3.17;;;8.00;99.90;;;;;;5023418;28;20210;-73
2022/01/30 05:56:09;;;;;;;9.75;3.10;;;8.00;99.90;;;;;;5041192;28;20189;-73
2022/01/30 05:58:35;;;;;;;17.80;4.43;;;8.00;99.90;;;;;;5025716;28;20201;-74
2022/01/30 06:01:07;;;;;;;14.85;4.10;;;8.00;99.90;;;;;;5021357;28;20639;-73
2022/01/30 06:03:33;;;;;;;16.80;2.80;;;8.00;99.90;;;;;;5040264;28;20240;-73
2022/01/30 06:06:00;;;;;;;11.43;2.77;;;8.00;99.90;;;;;;5039757;28;20537;-73
2022/01/30 06:08:41;;;;;;;12.88;3.00;;;8.10;99.90;;;;;;5023593;28;20241;-73
2022/01/30 06:11:08;;;;;;;14.10;3.72;;;8.10;99.90;;;;;;5028898;28;20185;-73
2022/01/30 06:13:34;;;;;;;10.13;2.95;;;8.10;99.90;;;;;;5022991;28;20770;-73
2022/01/30 06:16:00;;;;;;;15.80;4.15;;;8.10;99.90;;;;;;5024739;28;20169;-74
2022/01/30 06:18:27;;;;;;;10.13;2.50;;;8.20;99.90;;;;;;5021750;28;20186;-73
2022/01/30 06:21:11;;;;;;;14.98;4.20;;;8.20;99.90;;;;;;5026120;28;20557;-73
2022/01/30 06:23:57;;;;;;;10.85;2.88;;;8.20;99.90;;;;;;5018656;28;20256;-73
2022/01/30 06:26:25;;;;;;;11.43;3.92;;;8.20;99.90;;;;;;5024118;28;20579;-73
2022/01/30 06:29:10;;;;;;;10.18;3.00;;;8.20;99.90;;;;;;5026393;28;20209;-73
2022/01/30 06:31:54;;;;;;;14.77;3.05;;;8.20;99.90;;;;;;5024119;28;20205;-74
2022/01/30 06:34:49;;;;;;;4.90;2.17;;;8.20;99.90;;;;;;5025086;28;20183;-73
2022/01/30 06:37:33;;;;;;;14.05;3.03;;;8.10;99.90;;;;;;5023748;28;20178;-73
2022/01/30 06:40:12;;;;;;;12.60;3.40;;;8.00;99.90;;;;;;5020992;28;20597;-74
2022/01/30 06:42:57;;;;;;;10.30;2.40;;;8.00;99.90;;;;;;5023872;28;20206;-73
2022/01/30 06:45:44;;;;;;;7.50;2.85;;;8.00;99.90;;;;;;5022467;28;20224;-73
2022/01/30 06:48:17;;;;;;;8.32;2.05;;;8.00;99.90;;;;;;5024726;28;20216;-74
2022/01/30 06:51:01;;;;;;;9.50;1.83;;;8.00;99.90;;;;;;5021883;28;20187;-73
2022/01/30 06:53:46;;;;;;;7.60;2.10;;;8.00;99.90;;;;;;5023001;28;20198;-73
2022/01/30 06:56:30;;;;;;;10.32;1.90;;;8.00;99.90;;;;;;5023440;28;20174;-73
2022/01/30 06:59:22;;;;;;;9.05;1.55;;;8.10;99.90;;;;;;5022625;28;20205;-73
2022/01/30 07:02:09;;;;;;;8.55;2.40;;;8.10;99.90;;;;;;5022203;28;20189;-73
2022/01/30 07:04:53;;;;;;;10.75;2.60;;;8.10;99.90;;;;;;5039381;28;20201;-73
2022/01/30 07:07:42;;;;;;;9.73;2.47;;;8.10;99.90;;;;;;5023375;28;20297;-73
2022/01/30 07:10:08;;;;;;;8.85;2.40;;;8.10;99.90;;;;;;5031115;28;20170;-74
2022/01/30 07:12:34;;;;;;;11.88;2.45;;;8.20;99.90;;;;;;5022946;28;20198;-73
2022/01/30 07:14:59;;;;;;;12.90;2.50;;;8.20;99.90;;;;;;5023287;28;20177;-73
2022/01/30 07:17:25;;;;;;;9.50;2.70;;;8.20;99.90;;;;;;5022823;28;20206;-74
2022/01/30 07:19:51;;;;;;;12.90;2.60;;;8.30;99.90;;;;;;5024179;28;20239;-74
2022/01/30 07:22:16;;;;;;;10.70;2.83;;;8.30;99.90;;;;;;5022427;28;20543;-74
2022/01/30 07:24:42;;;;;;;10.13;2.03;;;8.30;99.90;;;;;;5025272;28;20177;-74
2022/01/30 07:27:09;;;;;;;8.83;2.40;;;8.30;99.90;;;;;;5021622;28;20181;-73
2022/01/30 07:29:35;;;;;;;13.70;3.30;;;8.30;99.90;;;;;;5024669;28;20627;-74
2022/01/30 07:32:00;;;;;;;11.33;2.20;;;8.30;99.90;;;;;;5032282;28;20182;-74
2022/01/30 07:34:26;;;;;;;9.50;2.40;;;8.30;99.90;;;;;;5031016;28;20675;-73
2022/01/30 07:36:56;;;;;;;15.65;3.50;;;8.30;99.90;;;;;;5022275;28;20182;-73
2022/01/30 07:39:26;;;;;;;7.05;2.00;;;8.40;99.90;;;;;;5029649;28;20174;-73
2022/01/30 07:41:52;;;;;;;7.88;1.58;;;8.40;99.90;;;;;;5022673;28;20186;-74
2022/01/30 07:44:18;;;;;;;6.83;1.60;;;8.40;99.90;;;;;;5022758;28;20194;-74
2022/01/30 07:46:44;;;;;;;8.50;2.20;;;8.40;99.90;;;;;;5021670;28;20193;-73
2022/01/30 07:49:10;;;;;;;12.23;2.17;;;8.40;99.90;;;;;;5020847;28;20209;-74
2022/01/30 07:51:35;;;;;;;8.27;1.57;;;8.40;99.90;;;;;;5022941;28;20220;-74
2022/01/30 07:54:01;;;;;;;7.80;1.73;;;8.50;99.90;;;;;;5032026;28;20304;-74
2022/01/30 07:56:26;;;;;;;10.77;2.20;;;8.50;99.90;;;;;;5027593;28;20181;-73
2022/01/30 07:58:52;;;;;;;12.03;3.07;;;8.50;99.90;;;;;;5028863;28;20566;-74
2022/01/30 08:01:18;;;;;;;11.70;1.97;;;8.50;99.90;;;;;;5029684;28;20182;-73
2022/01/30 08:03:43;;;;;;;9.97;2.23;;;8.50;99.90;;;;;;5024271;28;20205;-73
2022/01/30 08:06:09;;;;;;;9.40;2.30;;;8.60;99.90;;;;;;5032091;28;20178;-73
2022/01/30 08:08:35;;;;;;;14.23;2.53;;;8.60;99.90;;;;;;5027304;28;20304;-74
2022/01/30 08:11:01;;;;;;;11.30;2.10;;;8.60;99.90;;;;;;5012651;28;20627;-74
2022/01/30 08:13:26;;;;;;;8.73;1.50;;;8.60;99.90;;;;;;5021409;28;20221;-74
2022/01/30 08:15:52;;;;;;;8.50;2.27;;;8.60;99.90;;;;;;5022899;28;20173;-73
2022/01/30 08:18:18;;;;;;;7.13;1.83;;;8.60;99.90;;;;;;5029614;28;20213;-74
2022/01/30 08:20:43;;;;;;;8.97;2.17;;;8.70;99.90;;;;;;5023853;28;20213;-74
2022/01/30 08:23:14;;;;;;;10.90;2.23;;;8.70;99.90;;;;;;5020796;28;20202;-74
2022/01/30 08:25:40;;;;;;;12.15;2.55;;;8.80;99.90;;;;;;5029053;28;20190;-74
2022/01/30 08:28:07;;;;;;;14.57;2.45;;;8.80;99.90;;;;;;5028974;28;20202;-73
2022/01/30 08:30:33;;;;;;;13.13;3.35;;;8.80;99.90;;;;;;5023640;28;20518;-73
2022/01/30 08:32:59;;;;;;;16.70;2.78;;;8.80;99.90;;;;;;5028455;28;20216;-73
2022/01/30 08:35:27;;;;;;;10.93;2.75;;;8.90;99.90;;;;;;5022747;28;20177;-74
2022/01/30 08:37:57;;;;;;;4.75;1.85;;;8.90;99.90;;;;;;5022039;28;20191;-74
2022/01/30 08:40:23;;;;;;;12.60;2.10;;;8.90;99.90;;;;;;5027670;28;20593;-74
2022/01/30 08:42:50;;;;;;;10.90;2.20;;;8.90;99.90;;;;;;5029850;28;20191;-73
2022/01/30 08:45:17;;;;;;;9.57;1.88;;;9.00;99.90;;;;;;5027703;28;20565;-74
2022/01/30 08:47:45;;;;;;;10.30;1.83;;;8.90;99.90;;;;;;5029924;28;20335;-74
2022/01/30 08:50:12;;;;;;;6.85;2.35;;;8.90;99.90;;;;;;5020281;28;20185;-74
2022/01/30 08:52:38;;;;;;;5.65;1.88;;;8.90;99.90;;;;;;5020621;28;20197;-75
2022/01/30 08:55:06;;;;;;;7.67;1.90;;;8.90;99.90;;;;;;5022388;28;20172;-78
2022/01/30 08:57:32;;;;;;;10.75;1.95;;;8.90;99.90;;;;;;5025335;28;20597;-78
2022/01/30 08:59:58;;;;;;;14.70;3.05;;;8.90;99.90;;;;;;5021380;28;20188;-78
2022/01/30 09:02:24;;;;;;;7.17;2.30;;;9.00;99.90;;;;;;5028432;28;20677;-78
2022/01/30 09:04:50;;;;;;;10.40;1.90;;;9.10;99.90;;;;;;5024539;28;20572;-78
2022/01/30 09:07:17;;;;;;;12.15;1.98;;;9.20;99.90;;;;;;5021687;28;20182;-78
2022/01/30 09:09:43;;;;;;;11.95;2.22;;;9.20;99.90;;;;;;5025690;28;20192;-78
2022/01/30 09:12:09;;;;;;;11.27;2.30;;;9.30;99.90;;;;;;5021753;28;20269;-75
2022/01/30 09:14:38;;;;;;;14.27;2.30;;;9.30;99.90;;;;;;5030591;28;20646;-76
2022/01/30 09:17:11;;;;;;;16.20;2.47;;;9.40;99.90;;;;;;5024129;28;20177;-76
2022/01/30 09:19:38;;;;;;;11.02;1.92;;;9.50;99.90;;;;;;5024822;28;20174;-76
2022/01/30 09:22:04;;;;;;;9.73;2.33;;;9.70;99.90;;;;;;5027521;28;20206;-76
2022/01/30 09:24:29;;;;;;;13.80;2.50;;;9.80;99.90;;;;;;5029047;28;20209;-76
2022/01/30 09:26:55;;;;;;;11.07;1.77;;;9.90;99.90;;;;;;5022655;28;20181;-76
2022/01/30 09:29:22;;;;;;;10.77;4.03;;;10.00;99.90;;;;;;5023549;28;20211;-76
2022/01/30 09:31:48;;;;;;;11.50;2.00;;;10.00;99.90;;;;;;5023149;28;20178;-76
2022/01/30 09:34:14;;;;;;;14.75;2.92;;;10.00;99.90;;;;;;5017136;28;20323;-76
2022/01/30 09:36:40;;;;;;;11.17;2.27;;;10.10;99.90;;;;;;5036301;28;20648;-76
2022/01/30 09:39:05;;;;;;;10.70;2.53;;;10.10;99.90;;;;;;5022335;28;20170;-75
2022/01/30 09:41:33;;;;;;;17.73;3.20;;;10.10;99.90;;;;;;5025747;28;20170;-75
2022/01/30 09:44:01;;;;;;;16.00;2.35;;;10.10;99.90;;;;;;5027358;28;20205;-76
2022/01/30 09:46:29;;;;;;;11.15;2.30;;;10.10;99.90;;;;;;5026937;28;20669;-75
2022/01/30 09:48:55;;;;;;;11.70;2.70;;;10.10;99.90;;;;;;5027081;28;20201;-76
2022/01/30 09:51:21;;;;;;;13.75;2.67;;;10.20;99.90;;;;;;5022630;28;20680;-76
2022/01/30 09:53:47;;;;;;;13.90;3.00;;;10.20;99.90;;;;;;5030621;28;20194;-76
2022/01/30 09:56:13;;;;;;;10.90;3.10;;;10.20;99.90;;;;;;5024255;28;20253;-76
2022/01/30 09:58:39;;;;;;;12.73;3.37;;;10.20;99.90;;;;;;5028837;28;20512;-76
2022/01/30 10:01:04;;;;;;;12.13;2.43;;;10.20;99.90;;;;;;5025411;28;20196;-76
2022/01/30 10:03:30;;;;;;;16.83;3.73;;;10.30;99.90;;;;;;5024607;28;20193;-76
2022/01/30 10:06:11;;;;;;;13.80;3.47;;;10.50;99.90;;;;;;5020742;28;20261;-76
2022/01/30 10:08:45;;;;;;;11.52;2.20;;;10.60;99.90;;;;;;5037710;28;20712;-76
2022/01/30 10:11:35;;;;;;;12.48;2.70;;;10.70;99.90;;;;;;5024065;28;20170;-76
2022/01/30 10:14:07;;;;;;;9.30;2.33;;;10.70;99.90;;;;;;5038082;28;20613;-76
2022/01/30 10:16:47;;;;;;;11.38;3.38;;;10.80;99.90;;;;;;5022829;28;20166;-77
2022/01/30 10:19:21;;;;;;;14.40;3.60;;;10.90;99.90;;;;;;5025724;28;20568;-76
2022/01/30 10:21:49;;;;;;;16.48;3.15;;;11.00;99.90;;;;;;5030588;28;20235;-76
2022/01/30 10:24:23;;;;;;;9.63;3.78;;;11.10;99.90;;;;;;5022375;28;20197;-77
2022/01/30 10:26:51;;;;;;;11.90;2.75;;;11.10;99.90;;;;;;5026518;28;20219;-77
2022/01/30 10:29:27;;;;;;;12.85;3.08;;;11.10;99.90;;;;;;5024031;28;20241;-77
2022/01/30 10:32:10;;;;;;;14.23;3.63;;;11.10;99.90;;;;;;5031331;28;20181;-76
2022/01/30 10:34:38;;;;;;;11.23;2.65;;;11.00;99.90;;;;;;5027515;28;20173;-76
2022/01/30 10:37:22;;;;;;;12.05;2.30;;;11.00;99.90;;;;;;5025463;28;20638;-76
2022/01/30 10:40:17;;;;;;;10.70;3.10;;;11.10;99.90;;;;;;5027467;28;20180;-76
2022/01/30 10:42:48;;;;;;;7.88;2.30;;;11.20;99.90;;;;;;5032246;28;20204;-76
2022/01/30 10:45:33;;;;;;;10.98;3.28;;;11.20;99.90;;;;;;5025579;28;20235;-76
2022/01/30 10:48:16;;;;;;;15.00;3.95;;;11.20;99.90;;;;;;5023548;28;20733;-76
2022/01/30 10:50:44;;;;;;;13.05;3.20;;;10.90;99.90;;;;;;5022617;28;20577;-76
2022/01/30 10:53:18;;;;;;;8.27;2.60;;;10.90;99.90;;;;;;5009840;28;20560;-76
2022/01/30 10:55:45;;;;;;;10.18;3.90;;;10.90;99.90;;;;;;5022355;28;20712;-75
2022/01/30 10:58:17;;;;;;;12.80;2.70;;;10.90;99.90;;;;;;5024836;28;20580;-76
2022/01/30 11:00:51;;;;;;;10.93;2.80;;;11.00;99.90;;;;;;5022452;28;20169;-76
2022/01/30 11:03:36;;;;;;;12.50;3.10;;;11.20;99.90;;;;;;5030472;28;20204;-76
2022/01/30 11:06:02;;;;;;;16.73;3.17;;;11.30;99.90;;;;;;5025289;28;20177;-76
2022/01/30 11:08:32;;;;;;;11.02;3.75;;;11.40;99.90;;;;;;5024293;28;20823;-75
2022/01/30 11:11:01;;;;;;;11.40;3.50;;;11.50;99.90;;;;;;5029162;28;20180;-75
2022/01/30 11:13:32;;;;;;;13.80;3.70;;;11.50;99.90;;;;;;5019063;28;20244;-76
2022/01/30 11:16:55;;;;;;;10.68;3.35;;;11.40;99.90;;;;;;5022481;28;20703;-76
2022/01/30 11:18:51;;;;;;;18.50;5.43;;;11.30;99.90;;;;;;5018307;28;20269;-76
2022/01/30 11:21:22;;;;;;;10.35;2.92;;;11.20;99.90;;;;;;5022713;28;20213;-75
2022/01/30 11:23:51;;;;;;;18.85;5.10;;;11.20;99.90;;;;;;5021311;28;20685;-76
2022/01/30 11:26:18;;;;;;;10.65;2.88;;;11.20;99.90;;;;;;5023440;28;20174;-76
2022/01/30 11:28:45;;;;;;;11.43;4.00;;;11.10;99.90;;;;;;5022852;28;20210;-76
2022/01/30 11:31:14;;;;;;;11.65;3.45;;;11.10;99.90;;;;;;5022797;28;20539;-76
2022/01/30 11:33:40;;;;;;;13.48;3.38;;;11.10;99.90;;;;;;5023419;28;20206;-75
2022/01/30 11:36:07;;;;;;;11.98;3.22;;;11.10;99.90;;;;;;5021104;28;21089;-76
2022/01/30 11:38:34;;;;;;;14.80;3.92;;;11.10;99.90;;;;;;5023580;28;20269;-76
2022/01/30 11:41:15;;;;;;;16.15;4.80;;;11.10;99.90;;;;;;5020208;28;20181;-76
2022/01/30 11:44:01;;;;;;;15.30;3.80;;;11.10;99.90;;;;;;5024879;28;21117;-76
2022/01/30 11:46:27;;;;;;;20.45;4.63;;;11.10;99.90;;;;;;5039367;28;20925;-76
2022/01/30 11:49:11;;;;;;;12.30;4.10;;;11.20;99.90;;;;;;5021092;28;20209;-76
2022/01/30 11:51:51;;;;;;;14.82;4.05;;;11.20;99.90;;;;;;5022171;28;20174;-76
2022/01/30 11:54:36;;;;;;;18.20;3.28;;;11.30;99.90;;;;;;5020709;28;20205;-76
2022/01/30 11:57:20;;;;;;;11.55;3.60;;;11.40;99.90;;;;;;5021364;28;20213;-76
2022/01/30 12:00:02;;;;;;;18.42;5.38;;;11.50;99.90;;;;;;5020311;28;20757;-76
2022/01/30 12:02:38;;;;;;;12.30;3.47;;;11.50;99.90;;;;;;5020780;28;20198;-77
2022/01/30 12:05:04;;;;;;;12.70;4.03;;;11.60;99.90;;;;;;5024197;28;20190;-76
2022/01/30 12:07:38;;;;;;;26.35;5.57;;;11.60;99.90;;;;;;5028124;28;20190;-76
2022/01/30 12:10:15;;;;;;;16.10;3.90;;;11.60;99.90;;;;;;5028541;28;20186;-76
2022/01/30 12:12:50;;;;;;;17.08;4.10;;;11.60;99.90;;;;;;5023232;28;20725;-76
2022/01/30 12:15:46;;;;;;;14.63;4.55;;;11.40;99.90;;;;;;5027650;28;20211;-76
2022/01/30 12:18:35;;;;;;;10.60;4.25;;;11.50;99.90;;;;;;5023457;28;20316;-76
2022/01/30 12:21:09;;;;;;;16.13;3.90;;;11.50;99.90;;;;;;5035434;28;20218;-76
2022/01/30 12:23:37;;;;;;;12.80;3.33;;;11.50;99.90;;;;;;5019079;28;20209;-76
2022/01/30 12:26:05;;;;;;;12.48;3.40;;;11.50;99.90;;;;;;5023389;28;20200;-76
2022/01/30 12:28:55;;;;;;;15.57;4.35;;;11.50;99.90;;;;;;5020101;28;20555;-76
2022/01/30 12:31:38;;;;;;;16.73;3.80;;;11.40;99.90;;;;;;5019232;28;20170;-76
2022/01/30 12:34:05;;;;;;;13.23;3.20;;;11.40;99.90;;;;;;5019554;28;20217;-76
2022/01/30 12:36:35;;;;;;;13.70;4.88;;;11.40;99.90;;;;;;5022967;28;20782;-76
2022/01/30 12:39:18;;;;;;;11.10;4.35;;;11.30;99.90;;;;;;5019389;28;20205;-76
2022/01/30 12:41:44;;;;;;;21.27;4.75;;;11.30;99.90;;;;;;5021396;28;20178;-76
2022/01/30 12:44:15;;;;;;;12.97;3.53;;;11.40;99.90;;;;;;5029176;28;20255;-76
2022/01/30 12:46:53;;;;;;;18.15;4.00;;;11.40;99.90;;;;;;5022164;28;20264;-76
2022/01/30 12:49:25;;;;;;;15.20;5.35;;;11.40;99.90;;;;;;5018393;28;20598;-76
2022/01/30 12:51:57;;;;;;;17.40;5.03;;;11.30;99.90;;;;;;5020533;28;20205;-76
2022/01/30 12:54:26;;;;;;;17.27;3.25;;;11.30;99.90;;;;;;5037080;28;20205;-76
2022/01/30 12:56:54;;;;;;;13.20;4.03;;;11.30;99.90;;;;;;5023495;28;20260;-76
2022/01/30 12:59:24;;;;;;;13.15;5.40;;;11.40;99.90;;;;;;5020626;28;20200;-76
2022/01/30 13:01:50;;;;;;;14.63;3.72;;;11.40;99.90;;;;;;5020512;28;20262;-76
2022/01/30 13:04:21;;;;;;;10.60;4.10;;;11.50;99.90;;;;;;5029552;28;20292;-76
2022/01/30 13:06:50;;;;;;;16.55;4.18;;;11.50;99.90;;;;;;5019989;28;20585;-77
2022/01/30 13:09:22;;;;;;;13.82;4.60;;;11.50;99.90;;;;;;5030254;28;20201;-77
2022/01/30 13:11:48;;;;;;;14.07;4.38;;;11.60;99.90;;;;;;5019819;28;20174;-77
2022/01/30 13:14:14;;;;;;;9.77;3.55;;;11.60;99.90;;;;;;5022591;28;20199;-77
2022/01/30 13:16:46;;;;;;;23.90;4.27;;;11.60;99.90;;;;;;5027501;28;20178;-77
2022/01/30 13:19:14;;;;;;;17.73;4.18;;;11.60;99.90;;;;;;5021994;28;20205;-77
2022/01/30 13:21:46;;;;;;;15.20;4.00;;;11.50;99.90;;;;;;5019373;28;20197;-77
2022/01/30 13:24:18;;;;;;;14.45;4.28;;;11.40;99.90;;;;;;5022005;28;20624;-77
2022/01/30 13:26:45;;;;;;;11.32;3.55;;;11.40;99.90;;;;;;5019897;28;20268;-77
2022/01/30 13:29:21;;;;;;;14.77;3.90;;;11.40;99.90;;;;;;5029998;28;20224;-77
2022/01/30 13:31:54;;;;;;;15.23;4.10;;;11.40;99.90;;;;;;5037316;28;20206;-77
2022/01/30 13:34:21;;;;;;;11.20;3.08;;;11.40;99.90;;;;;;5024300;28;20198;-77
2022/01/30 13:36:53;;;;;;;14.30;4.32;;;11.40;99.90;;;;;;5030079;28;20563;-77
2022/01/30 13:39:27;;;;;;;14.38;3.30;;;11.40;99.90;;;;;;5029224;28;20223;-77
2022/01/30 13:42:05;;;;;;;18.02;3.40;;;11.40;99.90;;;;;;5023689;28;20654;-78
2022/01/30 13:44:51;;;;;;;12.82;3.10;;;11.50;99.90;;;;;;5031451;28;20170;-78
2022/01/30 13:47:21;;;;;;;10.90;2.75;;;11.50;99.90;;;;;;5010285;28;20649;-78
2022/01/30 13:49:49;;;;;;;14.10;3.33;;;11.50;99.90;;;;;;5024497;28;20205;-77
2022/01/30 13:52:17;;;;;;;10.15;3.22;;;11.50;99.90;;;;;;5026593;28;20175;-78
2022/01/30 13:54:57;;;;;;;19.67;4.55;;;11.60;99.90;;;;;;5027885;28;20181;-77
2022/01/30 13:57:32;;;;;;;15.13;4.95;;;11.60;99.90;;;;;;5029660;28;20185;-77
2022/01/30 14:00:05;;;;;;;12.45;4.20;;;11.60;99.90;;;;;;5028565;28;20177;-77
2022/01/30 14:02:31;;;;;;;17.05;5.68;;;11.60;99.90;;;;;;5022793;28;20248;-78